Time;durP1;ratioP1;P1;durP2;ratioP2;P2;SDS_P1;SDS_P2;PMS_P1;PMS_P2;Temp;Humidity;BMP_temperature;BMP_pressure;BME280_temperature;BME280_humidity;BME280_pressure;Samples;Min_cycle;Max_cycle;Signal;HPM_P1;HPM_P2
2023/06/18 00:02:15;;;;;;;21.07;19.10;;;13.30;99.90;;;;;;5062796;28;20181;-47
2023/06/18 00:04:40;;;;;;;21.50;19.50;;;13.30;99.90;;;;;;5062313;28;20315;-46
2023/06/18 00:07:06;;;;;;;20.30;18.53;;;13.20;99.90;;;;;;5063146;28;20419;-44
2023/06/18 00:09:32;;;;;;;20.90;19.00;;;13.20;99.90;;;;;;5061319;28;20187;-44
2023/06/18 00:11:57;;;;;;;21.10;19.20;;;13.20;99.90;;;;;;5062656;28;20668;-44
2023/06/18 00:14:23;;;;;;;20.27;18.50;;;13.10;99.90;;;;;;5062838;28;20186;-44
2023/06/18 00:16:50;;;;;;;19.90;18.30;;;13.10;99.90;;;;;;5062076;28;20200;-46
2023/06/18 00:19:16;;;;;;;20.90;19.03;;;13.10;99.90;;;;;;5060702;28;20184;-46
2023/06/18 00:21:41;;;;;;;21.03;19.17;;;13.10;99.90;;;;;;5062662;28;20431;-48
2023/06/18 00:24:07;;;;;;;21.13;19.13;;;13.10;99.90;;;;;;5062840;28;20865;-45
2023/06/18 00:26:32;;;;;;;20.30;18.60;;;13.00;99.90;;;;;;5062311;28;20251;-44
2023/06/18 00:28:58;;;;;;;20.40;18.53;;;13.00;99.90;;;;;;5062501;28;20212;-43
2023/06/18 00:31:25;;;;;;;19.63;17.83;;;12.90;99.90;;;;;;5061741;28;20220;-48
2023/06/18 00:33:51;;;;;;;20.07;18.37;;;13.00;99.90;;;;;;5062190;28;20197;-44
2023/06/18 00:36:19;;;;;;;19.47;17.73;;;13.00;99.90;;;;;;5061878;28;20434;-42
2023/06/18 00:38:45;;;;;;;19.30;17.50;;;12.90;99.90;;;;;;5062374;28;20181;-46
2023/06/18 00:41:11;;;;;;;19.60;17.90;;;12.90;99.90;;;;;;5062341;28;20415;-45
2023/06/18 00:43:37;;;;;;;20.23;18.33;;;12.90;99.90;;;;;;5062227;28;20531;-48
2023/06/18 00:46:04;;;;;;;19.50;17.80;;;12.80;99.90;;;;;;5061917;28;21015;-49
2023/06/18 00:48:32;;;;;;;18.53;16.93;;;12.90;99.90;;;;;;5062057;28;20952;-44
2023/06/18 00:50:59;;;;;;;18.90;17.20;;;12.80;99.90;;;;;;5061079;28;20473;-44
2023/06/18 00:53:25;;;;;;;18.87;17.30;;;12.80;99.90;;;;;;5061597;28;20478;-51
2023/06/18 00:55:52;;;;;;;17.83;16.23;;;12.70;99.90;;;;;;5044253;28;20542;-44
2023/06/18 00:58:23;;;;;;;20.13;18.20;;;12.70;99.90;;;;;;5061694;28;20595;-43
2023/06/18 01:00:50;;;;;;;20.60;18.73;;;12.70;99.90;;;;;;5061249;28;20462;-45
2023/06/18 01:03:17;;;;;;;20.10;18.20;;;12.70;99.90;;;;;;5060239;28;20733;-44
2023/06/18 01:05:47;;;;;;;19.23;17.40;;;12.60;99.90;;;;;;5060489;28;20554;-43
2023/06/18 01:08:13;;;;;;;19.60;17.80;;;12.60;99.90;;;;;;5061773;28;20442;-47
2023/06/18 01:10:40;;;;;;;20.20;18.30;;;12.60;99.90;;;;;;5043009;28;20526;-46
2023/06/18 01:13:14;;;;;;;20.17;18.10;;;12.60;99.90;;;;;;5060914;28;20444;-44
2023/06/18 01:15:40;;;;;;;18.80;17.00;;;12.60;99.90;;;;;;5060208;28;20453;-42
2023/06/18 01:18:07;;;;;;;19.37;17.50;;;12.50;99.90;;;;;;5061011;28;20439;-44
2023/06/18 01:20:40;;;;;;;19.20;17.30;;;12.50;99.90;;;;;;5060531;28;20797;-44
2023/06/18 01:23:21;;;;;;;18.87;17.07;;;12.50;99.90;;;;;;5059982;28;20508;-44
2023/06/18 01:25:46;;;;;;;18.97;17.17;;;12.50;99.90;;;;;;5060886;28;20997;-46
2023/06/18 01:28:15;;;;;;;19.10;17.17;;;12.50;99.90;;;;;;5061431;28;20537;-46
2023/06/18 01:30:40;;;;;;;19.10;17.30;;;12.40;99.90;;;;;;5061488;28;20937;-41
2023/06/18 01:33:12;;;;;;;18.87;17.10;;;12.40;99.90;;;;;;5061161;28;20431;-43
2023/06/18 01:35:38;;;;;;;18.67;16.97;;;12.40;99.90;;;;;;5061559;28;20618;-43
2023/06/18 01:38:27;;;;;;;20.43;18.33;;;12.40;99.90;;;;;;5060002;28;20485;-47
2023/06/18 01:41:09;;;;;;;18.20;16.57;;;12.40;99.90;;;;;;5060611;28;20567;-45
2023/06/18 01:43:47;;;;;;;18.03;16.43;;;12.30;99.90;;;;;;5061130;28;21000;-47
2023/06/18 01:46:16;;;;;;;20.27;18.20;;;12.30;99.90;;;;;;5060126;28;20435;-42
2023/06/18 01:48:45;;;;;;;19.30;17.40;;;12.30;99.90;;;;;;5061220;28;20482;-46
2023/06/18 01:51:13;;;;;;;18.67;16.87;;;12.20;99.90;;;;;;5060754;28;20470;-43
2023/06/18 01:53:40;;;;;;;19.00;17.10;;;12.20;99.90;;;;;;5059788;28;20427;-45
2023/06/18 01:56:09;;;;;;;19.07;17.23;;;12.20;99.90;;;;;;5060714;28;20450;-45
2023/06/18 01:58:36;;;;;;;19.40;17.50;;;12.20;99.90;;;;;;5060918;28;20848;-44
2023/06/18 02:01:02;;;;;;;19.43;17.60;;;12.10;99.90;;;;;;5060992;28;20419;-48
2023/06/18 02:03:28;;;;;;;18.57;16.77;;;12.10;99.90;;;;;;5059005;28;20439;-45
2023/06/18 02:05:54;;;;;;;18.67;16.80;;;12.10;99.90;;;;;;5060391;28;20475;-44
2023/06/18 02:08:20;;;;;;;19.43;15.70;;;12.00;99.90;;;;;;5059977;28;20442;-42
2023/06/18 02:10:46;;;;;;;18.37;16.67;;;12.00;99.90;;;;;;5060462;28;20221;-45
2023/06/18 02:16:11;;;;;;;18.13;16.43;;;11.90;99.90;;;;;;5041560;28;20861;-42
2023/06/18 02:18:37;;;;;;;19.13;17.33;;;11.90;99.90;;;;;;5059471;28;20438;-47
2023/06/18 02:21:02;;;;;;;17.87;16.17;;;11.90;99.90;;;;;;5041826;28;20690;-43
2023/06/18 02:23:28;;;;;;;18.40;16.70;;;11.90;99.90;;;;;;5059949;28;20195;-42
2023/06/18 02:25:57;;;;;;;17.27;15.67;;;11.80;99.90;;;;;;5060177;28;20239;-48
2023/06/18 02:28:22;;;;;;;17.33;15.70;;;11.90;99.90;;;;;;5059968;28;20230;-46
2023/06/18 02:30:48;;;;;;;19.07;17.20;;;11.90;99.90;;;;;;5059343;28;20995;-44
2023/06/18 02:33:17;;;;;;;18.57;16.67;;;11.80;99.90;;;;;;5059482;28;20278;-43
2023/06/18 02:35:43;;;;;;;17.80;16.03;;;11.90;99.90;;;;;;5059929;28;20188;-46
2023/06/18 02:38:09;;;;;;;20.00;16.20;;;11.90;99.90;;;;;;5059391;28;20435;-43
2023/06/18 02:40:35;;;;;;;19.77;17.13;;;12.00;99.90;;;;;;5060234;28;20773;-43
2023/06/18 02:43:02;;;;;;;17.87;16.27;;;12.00;99.90;;;;;;5059864;28;20627;-42
2023/06/18 02:45:28;;;;;;;17.73;16.13;;;11.90;99.90;;;;;;5059098;28;20443;-47
2023/06/18 02:47:53;;;;;;;19.80;17.90;;;11.90;99.90;;;;;;5059025;28;20742;-45
2023/06/18 02:50:19;;;;;;;17.73;15.90;;;11.90;99.90;;;;;;5059938;28;20484;-47
2023/06/18 02:52:46;;;;;;;17.63;15.93;;;11.90;99.90;;;;;;5059964;28;20594;-45
2023/06/18 02:55:13;;;;;;;17.27;15.50;;;11.80;99.90;;;;;;5059301;28;21239;-48
2023/06/18 02:57:40;;;;;;;18.10;16.37;;;11.80;99.90;;;;;;5060226;28;20572;-52
2023/06/18 03:00:11;;;;;;;17.73;15.83;;;11.80;99.90;;;;;;5060234;28;20473;-47
2023/06/18 03:02:37;;;;;;;16.70;15.10;;;11.80;99.90;;;;;;5059169;28;20455;-44
2023/06/18 03:05:03;;;;;;;16.80;15.23;;;11.80;99.90;;;;;;5058885;28;20501;-47
2023/06/18 03:07:29;;;;;;;17.83;16.03;;;11.80;99.90;;;;;;5059327;28;20431;-47
2023/06/18 03:09:56;;;;;;;16.87;15.37;;;11.90;99.90;;;;;;5059452;28;20435;-51
2023/06/18 03:12:21;;;;;;;18.37;16.50;;;11.90;99.90;;;;;;5058866;28;20421;-49
2023/06/18 03:14:47;;;;;;;17.67;15.87;;;11.90;99.90;;;;;;5059076;28;20427;-48
2023/06/18 03:17:13;;;;;;;18.17;16.37;;;11.90;99.90;;;;;;5059592;28;20309;-49
2023/06/18 03:19:40;;;;;;;17.93;16.30;;;11.90;99.90;;;;;;5059425;28;20188;-50
2023/06/18 03:22:06;;;;;;;19.03;17.13;;;11.90;99.90;;;;;;5059649;28;20901;-47
2023/06/18 03:24:32;;;;;;;18.17;16.37;;;11.90;99.90;;;;;;5059992;28;20827;-49
2023/06/18 03:26:59;;;;;;;17.80;16.00;;;11.90;99.90;;;;;;5059429;28;20435;-48
2023/06/18 03:29:25;;;;;;;18.30;16.50;;;11.90;99.90;;;;;;5058863;28;21012;-50
2023/06/18 03:31:53;;;;;;;17.10;15.30;;;12.00;99.90;;;;;;5058791;28;20550;-45
2023/06/18 03:34:20;;;;;;;17.90;16.10;;;12.00;99.90;;;;;;5062630;28;20431;-48
2023/06/18 03:36:47;;;;;;;16.27;14.67;;;12.00;99.90;;;;;;5063304;28;20969;-48
2023/06/18 03:39:15;;;;;;;18.60;16.90;;;12.00;99.90;;;;;;5062244;28;20427;-53
2023/06/18 03:41:40;;;;;;;19.10;17.30;;;12.00;99.90;;;;;;5063099;28;20431;-47
2023/06/18 03:44:06;;;;;;;17.70;16.10;;;12.00;99.90;;;;;;5062998;28;20422;-47
2023/06/18 03:46:32;;;;;;;17.73;16.00;;;12.10;99.90;;;;;;5062583;28;20438;-47
2023/06/18 03:48:58;;;;;;;17.00;15.47;;;12.10;99.90;;;;;;5044709;28;20227;-49
2023/06/18 03:51:24;;;;;;;17.87;16.07;;;12.10;99.90;;;;;;5063106;28;20266;-50
2023/06/18 03:53:50;;;;;;;17.97;16.17;;;12.10;99.90;;;;;;5063162;28;20420;-51
2023/06/18 03:56:16;;;;;;;18.47;16.53;;;12.10;99.90;;;;;;5063042;28;20422;-46
2023/06/18 03:58:43;;;;;;;18.77;16.70;;;12.00;99.90;;;;;;5063367;28;20526;-50
2023/06/18 04:01:09;;;;;;;15.97;14.57;;;12.10;99.90;;;;;;5063494;28;20430;-49
2023/06/18 04:03:36;;;;;;;17.43;15.80;;;12.10;99.90;;;;;;5061440;28;21027;-45
2023/06/18 04:06:02;;;;;;;19.27;17.37;;;12.10;99.90;;;;;;5062970;28;20474;-48
2023/06/18 04:08:28;;;;;;;18.93;17.03;;;12.10;99.90;;;;;;5062419;28;20434;-48
2023/06/18 04:10:55;;;;;;;17.83;15.97;;;12.10;99.90;;;;;;5062843;28;20216;-48
2023/06/18 04:13:21;;;;;;;17.33;15.77;;;12.20;99.90;;;;;;5063542;28;20451;-50
2023/06/18 04:15:47;;;;;;;17.50;15.70;;;12.30;99.90;;;;;;5063305;28;20419;-49
2023/06/18 04:18:13;;;;;;;18.53;16.70;;;12.30;99.90;;;;;;5061951;28;20449;-49
2023/06/18 04:20:39;;;;;;;18.33;16.43;;;12.40;99.90;;;;;;5062306;28;20197;-46
2023/06/18 04:23:04;;;;;;;17.60;15.93;;;12.40;99.90;;;;;;5062286;28;20854;-48
2023/06/18 04:25:30;;;;;;;19.67;17.67;;;12.30;99.90;;;;;;5062700;28;20189;-47
2023/06/18 04:27:57;;;;;;;18.57;16.97;;;12.30;99.90;;;;;;5062965;28;20185;-49
2023/06/18 04:30:23;;;;;;;18.60;16.83;;;12.20;99.90;;;;;;5062585;28;20250;-48
2023/06/18 04:32:48;;;;;;;19.20;17.30;;;12.20;99.90;;;;;;5044128;28;20427;-52
2023/06/18 04:35:14;;;;;;;18.30;16.60;;;12.20;99.90;;;;;;5060803;28;20177;-47
2023/06/18 04:37:39;;;;;;;18.83;16.97;;;12.20;99.90;;;;;;5062260;28;20177;-47
2023/06/18 04:40:06;;;;;;;19.40;17.40;;;12.20;99.90;;;;;;5062072;28;20238;-45
2023/06/18 04:42:32;;;;;;;18.50;16.60;;;12.30;99.90;;;;;;5061030;28;20708;-49
2023/06/18 04:44:57;;;;;;;18.23;16.43;;;12.30;99.90;;;;;;5060879;28;20446;-51
2023/06/18 04:47:23;;;;;;;18.90;17.10;;;12.30;99.90;;;;;;5061952;28;20185;-51
2023/06/18 04:49:49;;;;;;;19.57;17.67;;;12.30;99.90;;;;;;5061716;28;20185;-47
2023/06/18 04:52:14;;;;;;;18.60;16.90;;;12.40;99.90;;;;;;5062455;28;20184;-44
2023/06/18 04:54:41;;;;;;;19.10;17.20;;;12.40;99.90;;;;;;5061378;28;20879;-49
2023/06/18 04:57:07;;;;;;;19.53;17.67;;;12.50;99.90;;;;;;5062304;28;20173;-48
2023/06/18 04:59:34;;;;;;;19.70;17.80;;;12.60;99.90;;;;;;5061158;28;20435;-50
2023/06/18 05:02:00;;;;;;;19.40;17.67;;;12.60;99.90;;;;;;5060813;28;20731;-47
2023/06/18 05:04:26;;;;;;;19.97;18.17;;;12.70;99.90;;;;;;5061659;28;20992;-52
2023/06/18 05:06:51;;;;;;;19.53;17.73;;;12.80;99.90;;;;;;5061941;28;20914;-48
2023/06/18 05:09:18;;;;;;;19.70;17.90;;;12.80;99.90;;;;;;5061945;28;20189;-48
2023/06/18 05:11:44;;;;;;;19.20;17.50;;;12.80;99.90;;;;;;5060113;28;20612;-51
2023/06/18 05:14:10;;;;;;;20.07;18.20;;;13.00;99.90;;;;;;5061503;28;20439;-47
2023/06/18 05:16:35;;;;;;;19.57;17.80;;;13.00;99.90;;;;;;5059875;28;20450;-50
2023/06/18 05:19:01;;;;;;;19.60;17.87;;;13.10;99.90;;;;;;5060843;28;20181;-49
2023/06/18 05:21:27;;;;;;;18.87;17.17;;;13.20;99.90;;;;;;5061158;28;20744;-52
2023/06/18 05:23:52;;;;;;;19.43;17.73;;;13.40;99.90;;;;;;5043578;28;20217;-46
2023/06/18 05:26:18;;;;;;;18.90;17.20;;;13.40;99.90;;;;;;5061205;28;20518;-47
2023/06/18 05:28:44;;;;;;;19.13;17.60;;;13.50;99.90;;;;;;5060679;28;20182;-48
2023/06/18 05:31:09;;;;;;;18.90;17.20;;;13.50;99.90;;;;;;5061415;28;20201;-47
2023/06/18 05:33:35;;;;;;;20.17;18.37;;;13.50;99.90;;;;;;5061758;28;20181;-48
2023/06/18 05:36:01;;;;;;;19.63;18.03;;;13.60;99.90;;;;;;5059584;28;20177;-52
2023/06/18 05:38:27;;;;;;;20.50;18.80;;;13.60;99.90;;;;;;5042419;28;20190;-48
2023/06/18 05:40:52;;;;;;;20.73;18.97;;;13.70;99.90;;;;;;5060001;28;20438;-52
2023/06/18 05:43:18;;;;;;;20.00;18.10;;;13.80;99.90;;;;;;5061313;28;20181;-48
2023/06/18 05:45:44;;;;;;;20.40;18.50;;;13.90;99.90;;;;;;5058746;28;20189;-53
2023/06/18 05:48:09;;;;;;;20.23;18.63;;;14.00;99.90;;;;;;5060633;28;20189;-51
2023/06/18 05:50:35;;;;;;;18.73;17.40;;;14.00;99.90;;;;;;5060905;28;20232;-51
2023/06/18 05:53:01;;;;;;;18.47;17.07;;;14.10;99.90;;;;;;5060870;28;20181;-52
2023/06/18 05:55:27;;;;;;;17.77;16.50;;;14.20;99.90;;;;;;5058185;28;20181;-52
2023/06/18 05:57:52;;;;;;;19.30;17.70;;;14.40;99.90;;;;;;5061906;28;20931;-50
2023/06/18 06:00:18;;;;;;;19.87;18.10;;;14.60;99.90;;;;;;5061764;28;20285;-52
2023/06/18 06:02:45;;;;;;;19.40;17.73;;;14.60;99.90;;;;;;5059698;28;20545;-48
2023/06/18 06:05:11;;;;;;;18.90;17.50;;;14.70;99.90;;;;;;5058969;28;20226;-53
2023/06/18 06:07:36;;;;;;;19.17;17.60;;;14.80;99.90;;;;;;5060788;28;20476;-50
2023/06/18 06:10:03;;;;;;;19.50;17.93;;;14.90;99.90;;;;;;5061479;28;20260;-49
2023/06/18 06:12:29;;;;;;;18.77;17.37;;;15.00;99.90;;;;;;5061670;28;20266;-49
2023/06/18 06:14:55;;;;;;;19.00;17.70;;;15.20;99.90;;;;;;5060871;28;20466;-54
2023/06/18 06:17:20;;;;;;;19.77;18.37;;;15.30;99.90;;;;;;5060860;28;20181;-49
2023/06/18 06:19:46;;;;;;;18.27;16.97;;;15.30;99.90;;;;;;5059443;28;20235;-51
2023/06/18 06:22:11;;;;;;;18.77;17.47;;;15.50;99.90;;;;;;5059467;28;20185;-51
2023/06/18 06:24:37;;;;;;;19.33;18.03;;;15.60;99.90;;;;;;5060467;28;20185;-53
2023/06/18 06:27:03;;;;;;;19.80;18.30;;;15.80;99.90;;;;;;5060281;28;20192;-47
2023/06/18 06:29:29;;;;;;;19.07;17.67;;;15.80;99.90;;;;;;5057434;28;20189;-52
2023/06/18 06:31:54;;;;;;;18.10;16.80;;;15.90;99.90;;;;;;5058758;28;20477;-51
2023/06/18 06:34:21;;;;;;;18.20;16.90;;;16.00;99.90;;;;;;5042937;28;20203;-49
2023/06/18 06:36:47;;;;;;;18.13;16.83;;;16.20;99.90;;;;;;5060071;28;20181;-50
2023/06/18 06:39:13;;;;;;;18.63;17.40;;;16.30;99.90;;;;;;5059294;28;20434;-47
2023/06/18 06:41:39;;;;;;;18.00;16.70;;;16.40;99.90;;;;;;5060168;28;20169;-51
2023/06/18 06:44:04;;;;;;;18.90;17.70;;;16.50;99.90;;;;;;5060478;28;20773;-50
2023/06/18 06:46:30;;;;;;;17.67;16.57;;;16.60;99.90;;;;;;5060731;28;20189;-51
2023/06/18 06:48:55;;;;;;;17.90;16.70;;;16.70;99.90;;;;;;5059738;28;20413;-50
2023/06/18 06:51:21;;;;;;;18.63;17.43;;;16.80;99.90;;;;;;5059633;28;20246;-48
2023/06/18 06:53:46;;;;;;;18.47;17.27;;;17.00;99.90;;;;;;5057451;28;20185;-51
2023/06/18 06:56:12;;;;;;;18.97;17.77;;;17.10;99.90;;;;;;5056877;28;20203;-51
2023/06/18 06:58:38;;;;;;;18.80;17.60;;;17.20;99.90;;;;;;5055795;28;20303;-50
2023/06/18 07:01:03;;;;;;;19.20;17.80;;;17.30;99.90;;;;;;5057607;28;20709;-45
2023/06/18 07:03:29;;;;;;;18.17;17.07;;;17.40;99.90;;;;;;5059389;28;20558;-51
2023/06/18 07:05:54;;;;;;;17.97;16.67;;;17.50;99.90;;;;;;5059399;28;20270;-46
2023/06/18 07:08:20;;;;;;;17.97;16.70;;;17.70;99.90;;;;;;5059092;28;20192;-49
2023/06/18 07:10:46;;;;;;;18.13;16.83;;;17.80;99.90;;;;;;5058465;28;20226;-47
2023/06/18 07:13:12;;;;;;;18.67;17.37;;;18.00;99.90;;;;;;5057664;28;20711;-48
2023/06/18 07:15:38;;;;;;;17.47;16.27;;;18.00;99.90;;;;;;5057816;28;20476;-48
2023/06/18 07:18:04;;;;;;;17.87;16.77;;;18.20;99.90;;;;;;5058223;28;20515;-47
2023/06/18 07:20:29;;;;;;;17.70;16.50;;;18.30;99.90;;;;;;5057349;28;20307;-48
2023/06/18 07:22:55;;;;;;;17.70;16.50;;;18.40;99.90;;;;;;5057146;28;20189;-47
2023/06/18 07:25:20;;;;;;;17.70;16.50;;;18.50;99.90;;;;;;5058664;28;20212;-51
2023/06/18 07:27:46;;;;;;;18.23;16.93;;;18.60;99.90;;;;;;5059169;28;20546;-50
2023/06/18 07:30:12;;;;;;;17.07;15.97;;;18.80;99.90;;;;;;5058140;28;20266;-53
2023/06/18 07:32:38;;;;;;;15.93;15.00;;;19.00;99.90;;;;;;5057596;28;20266;-51
2023/06/18 07:35:04;;;;;;;17.90;16.70;;;19.10;99.90;;;;;;5057288;28;20473;-51
2023/06/18 07:37:29;;;;;;;16.37;15.40;;;19.20;99.90;;;;;;5059689;28;20185;-47
2023/06/18 07:39:55;;;;;;;17.10;16.00;;;19.40;99.90;;;;;;5058855;28;20419;-53
2023/06/18 07:42:21;;;;;;;17.40;16.30;;;19.50;99.90;;;;;;5059252;28;20184;-48
2023/06/18 07:44:46;;;;;;;18.10;16.80;;;19.60;99.90;;;;;;5058956;28;20213;-49
2023/06/18 07:47:12;;;;;;;17.17;16.10;;;19.80;99.90;;;;;;5058695;28;20738;-51
2023/06/18 07:49:38;;;;;;;17.30;16.20;;;19.90;99.90;;;;;;5058630;28;20441;-50
2023/06/18 07:52:04;;;;;;;16.63;15.60;;;20.00;99.90;;;;;;5057804;28;20204;-51
2023/06/18 07:54:32;;;;;;;17.00;15.90;;;20.20;99.90;;;;;;5058407;28;20182;-51
2023/06/18 07:56:58;;;;;;;17.67;16.47;;;20.20;99.90;;;;;;5058146;28;20513;-51
2023/06/18 07:59:23;;;;;;;17.40;16.33;;;20.30;99.90;;;;;;5058251;28;20773;-54
2023/06/18 08:01:49;;;;;;;17.30;16.20;;;20.30;99.90;;;;;;5059144;28;20184;-51
2023/06/18 08:04:14;;;;;;;16.80;15.70;;;20.40;99.90;;;;;;5059171;28;20286;-52
2023/06/18 08:06:40;;;;;;;17.67;16.47;;;20.60;99.90;;;;;;5059165;28;20625;-49
2023/06/18 08:09:06;;;;;;;17.37;16.23;;;20.70;99.90;;;;;;5059830;28;20587;-52
2023/06/18 08:11:31;;;;;;;17.23;16.10;;;20.90;99.90;;;;;;5041757;28;20316;-47
2023/06/18 08:13:57;;;;;;;16.77;15.77;;;21.10;99.90;;;;;;5059549;28;20190;-52
2023/06/18 08:16:23;;;;;;;16.83;15.63;;;21.20;99.40;;;;;;5059193;28;20378;-47
2023/06/18 08:18:52;;;;;;;17.20;16.10;;;21.30;95.50;;;;;;5059910;28;20250;-54
2023/06/18 08:21:17;;;;;;;17.30;16.30;;;21.30;94.50;;;;;;5062736;28;20434;-51
2023/06/18 08:23:43;;;;;;;17.70;16.60;;;21.40;95.20;;;;;;5045634;28;20431;-51
2023/06/18 08:26:08;;;;;;;16.83;15.83;;;21.70;95.50;;;;;;5063837;28;20668;-52
2023/06/18 08:28:34;;;;;;;17.10;16.00;;;21.90;95.20;;;;;;5063414;28;20280;-49
2023/06/18 08:30:59;;;;;;;16.30;15.30;;;22.10;94.70;;;;;;5063304;28;20209;-48
2023/06/18 08:33:25;;;;;;;17.40;16.30;;;22.30;93.70;;;;;;5063492;28;20571;-48
2023/06/18 08:35:51;;;;;;;15.73;14.63;;;22.50;93.50;;;;;;5062938;28;20204;-48
2023/06/18 08:38:16;;;;;;;16.70;15.70;;;22.60;91.00;;;;;;5063657;28;20181;-50
2023/06/18 08:40:52;;;;;;;16.33;15.33;;;22.70;91.60;;;;;;5063123;28;20189;-50
2023/06/18 08:43:26;;;;;;;16.50;15.50;;;22.90;90.90;;;;;;5062855;28;20238;-51
2023/06/18 08:45:53;;;;;;;16.47;15.53;;;23.10;88.20;;;;;;5062496;28;20867;-50
2023/06/18 08:48:27;;;;;;;15.67;14.63;;;23.20;89.70;;;;;;5063292;28;20451;-49
2023/06/18 08:51:03;;;;;;;16.37;15.37;;;23.40;87.60;;;;;;5063773;28;21101;-52
2023/06/18 08:54:00;;;;;;;15.93;14.93;;;23.60;86.70;;;;;;5063947;28;20748;-49
2023/06/18 08:56:28;;;;;;;16.07;15.13;;;23.80;85.60;;;;;;5053881;28;20435;-50
2023/06/18 08:58:58;;;;;;;16.57;15.57;;;24.00;83.60;;;;;;5063621;28;20416;-54
2023/06/18 09:01:25;;;;;;;16.50;15.50;;;24.20;82.20;;;;;;5062956;28;20415;-49
2023/06/18 09:03:53;;;;;;;16.00;15.00;;;24.50;82.00;;;;;;5062090;28;20777;-44
2023/06/18 09:06:18;;;;;;;16.30;15.40;;;24.70;76.70;;;;;;5062960;28;20455;-46
2023/06/18 09:08:46;;;;;;;16.27;15.10;;;25.00;75.30;;;;;;5062804;28;20469;-47
2023/06/18 09:11:12;;;;;;;16.80;15.90;;;25.30;69.70;;;;;;5061544;28;20224;-48
2023/06/18 09:13:42;;;;;;;16.10;15.10;;;25.50;68.50;;;;;;5061901;28;20420;-45
2023/06/18 09:16:11;;;;;;;15.43;14.53;;;25.70;68.50;;;;;;5061915;28;20419;-45
2023/06/18 09:18:37;;;;;;;17.00;15.80;;;25.80;64.80;;;;;;5062072;28;20415;-43
2023/06/18 09:21:03;;;;;;;17.17;15.97;;;26.20;65.00;;;;;;5061177;28;21137;-46
2023/06/18 09:23:30;;;;;;;16.20;15.30;;;26.60;61.40;;;;;;5061780;28;20593;-43
2023/06/18 09:25:56;;;;;;;16.87;15.87;;;27.00;59.40;;;;;;5061738;28;20419;-44
2023/06/18 09:28:24;;;;;;;17.57;16.57;;;27.40;56.80;;;;;;5061641;28;20416;-44
2023/06/18 09:31:00;;;;;;;16.90;15.90;;;27.90;54.30;;;;;;5061207;28;20459;-44
2023/06/18 09:33:28;;;;;;;17.67;16.67;;;28.30;52.30;;;;;;5062725;28;20411;-48
2023/06/18 09:36:05;;;;;;;17.23;16.23;;;28.70;48.30;;;;;;5061862;28;20935;-43
2023/06/18 09:38:37;;;;;;;16.77;15.77;;;29.20;47.20;;;;;;5062142;28;20754;-48
2023/06/18 09:41:13;;;;;;;16.40;15.50;;;29.60;46.20;;;;;;5062422;28;20485;-48
2023/06/18 09:43:41;;;;;;;16.87;15.97;;;30.10;44.70;;;;;;5062199;28;20462;-43
2023/06/18 09:46:07;;;;;;;16.93;15.93;;;30.40;41.60;;;;;;5062356;28;20431;-45
2023/06/18 09:48:40;;;;;;;17.43;16.43;;;30.50;41.80;;;;;;5044302;28;20447;-49
2023/06/18 09:51:05;;;;;;;16.33;15.43;;;30.90;39.70;;;;;;5061821;28;20466;-47
2023/06/18 09:53:32;;;;;;;17.37;16.37;;;31.20;39.00;;;;;;5062225;28;20419;-45
2023/06/18 09:56:09;;;;;;;17.40;16.40;;;31.70;37.70;;;;;;5061828;28;20621;-44
2023/06/18 09:58:46;;;;;;;16.20;15.40;;;32.30;35.40;;;;;;5061980;28;20411;-49
2023/06/18 10:01:13;;;;;;;17.30;16.40;;;32.50;35.60;;;;;;5061714;28;20438;-50
2023/06/18 10:03:41;;;;;;;16.60;15.70;;;32.80;32.20;;;;;;5060995;28;20935;-47
2023/06/18 10:06:21;;;;;;;17.30;16.30;;;32.90;33.80;;;;;;5060915;28;20455;-48
2023/06/18 10:08:50;;;;;;;17.30;16.30;;;33.10;31.20;;;;;;5061576;28;21299;-46
2023/06/18 10:11:17;;;;;;;16.83;15.93;;;33.40;32.50;;;;;;5043406;28;20471;-45
2023/06/18 10:13:52;;;;;;;17.20;16.30;;;33.70;29.70;;;;;;5061397;28;20414;-44
2023/06/18 10:16:20;;;;;;;17.53;16.63;;;34.10;28.80;;;;;;5061328;28;20909;-46
2023/06/18 10:19:24;;;;;;;16.87;15.97;;;34.10;28.80;;;;;;5060895;28;20469;-43
2023/06/18 10:21:54;;;;;;;16.33;15.33;;;34.60;28.20;;;;;;5061577;28;20782;-46
2023/06/18 10:24:41;;;;;;;17.07;16.07;;;35.00;26.60;;;;;;5061229;28;20422;-49
2023/06/18 10:27:07;;;;;;;16.80;15.90;;;35.20;25.50;;;;;;5060780;28;20425;-47
2023/06/18 10:29:34;;;;;;;16.67;15.67;;;35.40;25.10;;;;;;5060874;28;20419;-45
2023/06/18 10:32:04;;;;;;;17.43;16.43;;;35.50;23.90;;;;;;5060474;28;20987;-44
2023/06/18 10:34:31;;;;;;;17.30;16.40;;;35.60;24.00;;;;;;5059199;28;20431;-49
2023/06/18 10:36:58;;;;;;;16.07;15.27;;;35.60;23.00;;;;;;5060200;28;20416;-45
2023/06/18 10:39:24;;;;;;;15.93;15.03;;;35.30;23.80;;;;;;5059516;28;20522;-47
2023/06/18 10:41:54;;;;;;;17.10;16.20;;;35.50;24.00;;;;;;5061201;28;20439;-49
2023/06/18 10:44:33;;;;;;;16.63;15.73;;;35.80;24.70;;;;;;5060315;28;20434;-49
2023/06/18 10:47:18;;;;;;;16.80;15.80;;;36.00;23.00;;;;;;5059877;28;20916;-43
2023/06/18 10:50:02;;;;;;;15.80;14.97;;;35.60;23.80;;;;;;5059895;28;20412;-44
2023/06/18 10:52:38;;;;;;;16.27;15.47;;;35.20;24.30;;;;;;5059851;28;20427;-49
2023/06/18 10:55:07;;;;;;;16.10;15.20;;;35.20;23.50;;;;;;5060062;28;20406;-48
2023/06/18 10:57:37;;;;;;;15.37;14.57;;;35.20;24.10;;;;;;5059883;28;20427;-45
2023/06/18 11:00:18;;;;;;;17.90;16.90;;;35.20;24.60;;;;;;5059395;28;20462;-48
2023/06/18 11:02:45;;;;;;;17.23;16.20;;;34.60;24.80;;;;;;5060596;28;20438;-44
2023/06/18 11:05:51;;;;;;;17.80;16.80;;;34.50;24.60;;;;;;5059295;28;20548;-46
2023/06/18 11:08:27;;;;;;;18.27;17.27;;;33.70;25.30;;;;;;5060648;28;20889;-44
2023/06/18 11:11:07;;;;;;;17.20;16.30;;;33.10;25.50;;;;;;5060663;28;21034;-45
2023/06/18 11:13:40;;;;;;;17.50;16.50;;;32.90;26.80;;;;;;5060453;28;20478;-44
2023/06/18 11:16:06;;;;;;;17.33;16.43;;;32.90;26.60;;;;;;5060546;28;20488;-46
2023/06/18 11:18:33;;;;;;;17.30;16.30;;;33.30;26.20;;;;;;5060421;28;20415;-45
2023/06/18 11:21:02;;;;;;;17.10;16.20;;;33.40;24.60;;;;;;5060844;28;20193;-46
2023/06/18 11:23:29;;;;;;;16.67;15.77;;;33.00;25.60;;;;;;5060531;28;20490;-47
2023/06/18 11:25:55;;;;;;;17.17;16.13;;;33.70;25.90;;;;;;5060602;28;20426;-49
2023/06/18 11:28:24;;;;;;;17.80;16.80;;;34.60;24.50;;;;;;5060933;28;20431;-48
2023/06/18 11:30:58;;;;;;;15.90;15.00;;;34.90;24.10;;;;;;5059975;28;20208;-45
2023/06/18 11:33:28;;;;;;;16.53;15.63;;;34.80;22.70;;;;;;5060043;28;20460;-44
2023/06/18 11:36:05;;;;;;;17.57;16.53;;;35.00;23.50;;;;;;5060336;28;20415;-49
2023/06/18 11:38:32;;;;;;;17.50;16.57;;;35.30;23.40;;;;;;5059665;28;20933;-46
2023/06/18 11:40:58;;;;;;;16.57;15.70;;;35.50;23.10;;;;;;5060381;28;21365;-44
2023/06/18 11:43:23;;;;;;;16.67;15.77;;;34.70;23.50;;;;;;5060362;28;20423;-50
2023/06/18 11:45:53;;;;;;;17.30;16.40;;;34.00;23.30;;;;;;5059966;28;20189;-46
2023/06/18 11:48:22;;;;;;;16.87;15.97;;;33.20;24.60;;;;;;5060104;28;20635;-45
2023/06/18 11:50:55;;;;;;;16.90;15.90;;;33.30;25.40;;;;;;5060265;28;21397;-45
2023/06/18 11:53:21;;;;;;;16.17;15.37;;;32.60;25.80;;;;;;5060428;28;20419;-45
2023/06/18 11:55:47;;;;;;;17.60;16.70;;;32.30;26.70;;;;;;5063556;28;20889;-44
2023/06/18 11:58:16;;;;;;;17.17;16.20;;;32.40;27.00;;;;;;5063888;28;20453;-47
2023/06/18 12:00:42;;;;;;;17.20;16.30;;;33.10;26.60;;;;;;5064348;28;20514;-46
2023/06/18 12:03:08;;;;;;;16.97;15.80;;;33.50;25.60;;;;;;5064386;28;20423;-47
2023/06/18 12:05:37;;;;;;;17.00;16.10;;;33.60;25.00;;;;;;5063407;28;20474;-48
2023/06/18 12:08:13;;;;;;;17.10;16.20;;;33.70;25.40;;;;;;5064186;28;20266;-48
2023/06/18 12:10:41;;;;;;;16.90;15.93;;;34.40;24.60;;;;;;5064166;28;20466;-45
2023/06/18 12:13:11;;;;;;;17.67;16.70;;;35.30;23.30;;;;;;5063464;28;20484;-45
2023/06/18 12:15:44;;;;;;;17.20;16.17;;;35.30;21.90;;;;;;5063730;28;21451;-47
2023/06/18 12:18:14;;;;;;;16.33;15.53;;;35.60;22.00;;;;;;5045573;28;20518;-47
2023/06/18 12:20:40;;;;;;;16.60;15.80;;;35.70;23.00;;;;;;5063519;28;20430;-49
2023/06/18 12:23:06;;;;;;;16.13;15.23;;;36.10;22.30;;;;;;5063922;28;20419;-47
2023/06/18 12:25:32;;;;;;;16.83;15.83;;;36.50;21.20;;;;;;5063592;28;20467;-43
2023/06/18 12:28:02;;;;;;;16.50;15.70;;;37.00;20.90;;;;;;5063990;28;20460;-47
2023/06/18 12:30:30;;;;;;;16.60;15.70;;;37.60;19.70;;;;;;5071568;28;20516;-45
2023/06/18 12:33:14;;;;;;;17.00;16.10;;;37.90;19.80;;;;;;5072158;28;20469;-46
2023/06/18 12:35:56;;;;;;;17.70;16.70;;;38.10;19.00;;;;;;5071820;28;20451;-46